En poursuivant votre navigation sur ce site, vous acceptez l'utilisation de cookies pour vous proposer des contenus et services adaptés. Mentions légales.
  

11/10/2020 Mise à jour des tableaux d'analyses décadaires
03/10/2020 Mise en ligne de la synthèse climatologique de Septembre 2020 : 
CLIQUEZ ICI
01/10/2020  Mise à jour des tableaux d'analyses décadaires, mensuelles et annuelles : rubrique climatologie
21/09/2020 Retour sur un épisode de chaleur exceptionnel en septembre : 
CLIQUEZ ICI   

NOAA COMPLET DU MOIS

Si l'entête du tableau ne s'affiche pas correctement, => actualisez la page (F5 avec Internet Explorer, Chrome...).
Utilisez l'ascenseur sur la droite des lignes du tableau pour faire défiler verticalement les jours du mois.

TABLEAU DES DONNEES COMPLETES NOAA de SEPTEMBRE 2020

DATE TEMPERATURE
sous abri
TEMPARATURE 
au sol
VENT  et  Indice de Refroidissement Eolien  PRECIPITATIONS (en mm/m2)
et Intensité
PRESSION ATMOSPHERIQUE (en hPa) HUMIDITE de l'AIR RADIATIONS SOLAIRES (en W/m2)
Mini Moy. Maxi Mini Moy. Maxi Moyen Rafale I.R.E.
Minii
Précip. jour Cumul mois Intensité Maxi Mini Moy. Maxi Mini Moy. Maxi Pic maxi du jour Total jour
01/09/20 10.8° 16.3° 22.7° 10° 16.9° 26.7° 6km/h dir ONO 24.1km/h dir O 10.7° 0 0 1013.2 1015.4 1017.4 51% 75.7% 96% 921 66 465
02/09/20 9.3° 16.2° 24.5° 8.3° 16.2° 28.3° 3.9km/h dir O 27.4km/h dir O 9.3° 0 0 1014.5 1016.3 1019.4 43% 76.5% 96% 863 58 093
03/09/20 8.8° 17.4° 26.2° 7.8° 17.4° 29.4° 2.7km/h dir NE 19.3km/h dir N 8.8° 0 0 1019.3 1021.6 1023.4 31% 65.8% 95% 784 66 277
04/09/20 10.9° 21.4° 31.6° 9.4° 21.3° 33.9° 4.8km/h dir SE 25.7km/h dir SSE 10.9° 0 0 1019.2 1022.3 1024.4 24% 59.2% 91% 772 65 795
05/09/20 18° 24.1° 31.3° 15° 24° 34.4° 8km/h dir SSE 30.6km/h dir O 17.6° 0 0 1015.7 1017.9 1019.3 32% 48.8% 70% 763 64 616
06/09/20 13.5° 17.4° 22.3° 11.1° 17.5° 27.2° 7.9km/h dir ONO 27.4km/h dir ONO 13.5° 0 0 1017.3 1018.1 1019.2 40% 67.1% 88% 1102 49 610
07/09/20 10° 16.8° 23.7° 8.3° 16.8° 27.2° 10.8km/h dir ONO 40.2km/h dir N 9.2° 0 0 1018.5 1020 1023.5 45% 62.6% 85% 761 64 159
08/09/20 8.2° 17.3° 26.4° 6.7° 16.8° 30° 2.6km/h dir ONO 17.7km/h dir ONO 8.3° 0 0 1023.4 1024.7 1026.6 44% 67.3% 92% 765 63 806
09/09/20 10.3° 19.3° 29° 8.9° 19.1° 32.8° 1.6km/h dir SSE 16.1km/h dir O 10.3° 0 0 1019.1 1022 1024.1 35% 68.3% 94% 745 59 372
10/09/20 13.7° 21° 29° 12.2° 20.7° 32.8° 4.7km/h dir ONO 25.7km/h dir O 13.7° 0 0 1013.7 1016.8 1020.2 34% 63.7% 88% 830 59 829
11/09/20 13.1° 20.6° 28.6° 11.7° 19.9° 31.7° 4.2km/h dir N 24.1km/h dir N 13.1° 0 0 1013.7 1014.5 1015.3 39% 68.3% 95% 759 58 604
12/09/20 11.9° 20.7° 29.9° 10.6° 20.3° 33.9° 3.7km/h dir NNE 22.5km/h dir NNE 11.9° 0 0 1015.1 1018 1021.3 34% 64.1% 93% 751 59 390
13/09/20 11.8° 20.9° 30.6° 10° 20.2° 33.9° 2.3km/h dir O 16.1km/h dir NE 11.8° 0 0 1021.4 1022.5 1024.3 38% 62.9% 87% 708 57 729
14/09/20 15.4° 23.8° 34.1° 13.9° 23.3° 37.2° 3.4km/h dir SE 22.5km/h dir SSE 15.4° 0 0 1019.1 1021.6 1023.4 34% 64.3% 92% 700 56 052
15/09/20 18.9° 25.9° 33.9° 16.1° 25.3° 37.2° 4.3km/h dir SE 27.4km/h dir SSE 18.9° 0 0 1016.3 1018.9 1020.7 34% 53.8% 73% 687 57 379
16/09/20 15.9° 23.9° 32.8° 13.9° 23.7° 36.1° 4.7km/h dir SE 37km/h dir ENE 15.9° 0 0 1014.4 1016.8 1018.5 32% 60.8% 88% 689 57 576
17/09/20 15° 23° 31.3° 12.8° 22.9° 34.4° 8km/h dir ONO 37km/h dir NNE 15.1° 0 0 1012.8 1015.2 1016.8 41% 63.5% 88% 679 55 294
18/09/20 13.9° 23.3° 32.8° 12.2° 23.3° 35.6° 4.3km/h dir SSE 29km/h dir E 14° 0 0 1013.5 1015.4 1016.9 32% 63.5% 93% 700 54 258
19/09/20 18.4° 22.8° 30.8° 16.7° 22.8° 34.4° 5km/h dir SE 51.5km/h dir S 18.6° 2 2 3.8mm/h 1011.5 1013.7 1015.6 39% 70.6% 93% 861 40 314
20/09/20 16° 19.9° 25.7° 15° 20.2° 29.4° 2.7km/h dir SE 17.7km/h dir S 16° 0.6 2.6 1012.2 1013.4 1014.9 55% 79.7% 95% 812 38 377
21/09/20 17.2° 19.7° 24.9° 16.7° 19.9° 28.9° 2.6km/h dir SE 14.5km/h dir O 17.2° 0.2 2.8 1012.9 1014.1 1015.2 64% 83.8% 95% 888 31 248
22/09/20 16.7° 19.1° 24.4° 15.6° 19.4° 29.4° 3.7km/h dir SE 25.7km/h dir S 16.7° 9.8 12.6 35.8mm/h 1009 1011.5 1013.7 64% 86.3% 95% 893 29 400
23/09/20 15.9° 19.6° 25.1° 15.6° 20.2° 28.3° 4km/h dir SSE 30.6km/h dir SSE 15.9° 0.8 13.4 1005.9 1009 1010.9 52% 79.8% 96% 807 42 444
24/09/20 14.6° 18.3° 22° 13.9° 18.4° 25° 6.8km/h dir SSE 37km/h dir S 13.2° 21.6 35 221.6mm/h 1003.5 1006.7 1008.9 66% 83.8% 95% 684 27 530
25/09/20 8.7° 11.8° 15.9° 8.3° 12.3° 19.4° 7.1km/h dir SO 38.6km/h dir O 6.2° 9.2 44.2 32.6mm/h 1003 1005.4 1009.7 60% 84.1% 94% 993 34 868
26/09/20 6.3° 9.4° 13.3° 5.6° 9.9° 16.7° 4.7km/h dir SO 27.4km/h dir OSO 6.3° 1.4 45.6 16mm/h 1007.5 1009.4 1011.4 69% 85.5% 94% 932 30 902
27/09/20 7.3° 8.2° 9.6° 7.2° 8.6° 10.6° 8.2km/h dir SSE 32.2km/h dir SO 5.5° 30.4 76 640mm/h 1006.5 1007.3 1008.8 89% 93.1% 95% 223 10 684
28/09/20 8.3° 10.2° 12.2° 8.9° 11° 13.3° 5km/h dir SSE 24.1km/h dir SSE 6.8° 15.2 91.2 5.8mm/h 1008.7 1012.6 1018.9 95% 95.8% 96% 172 8 192
29/09/20 10.1° 13.6° 18.8° 9.4° 15° 23.3° 3.4km/h dir NNE 19.3km/h dir N 10.1° 0 91.2 1018.1 1019.2 1020.7 65% 85.6% 97% 831 48 216
30/09/20 6.5° 12.6° 20° 6.1° 13.2° 23.9° 1.4km/h dir SO 11.3km/h dir OSO 6.5° 0.2 91.4 1010.6 1014.7 1018.2 64% 86.9% 97% 675 46 646

RETOUR ACCUEIL


Date de création : 01/10/2020 : 22:26
Catégorie : ANNEE 2020 - MOIS PASSES - SEPTEMBRE 2020
Page lue 37 fois


Réactions à cet article


Personne n'a encore laissé de commentaire.
Soyez donc le premier !